createdAt,value
2023-01-17T00:02:23.554Z,4.93
2023-01-17T00:05:09.447Z,4.77
2023-01-17T00:07:55.089Z,5.07
2023-01-17T00:10:28.318Z,4.57
2023-01-17T00:13:01.803Z,5.40
2023-01-17T00:15:31.140Z,5.10
2023-01-17T00:17:59.216Z,5.07
2023-01-17T00:20:48.261Z,5.17
2023-01-17T00:23:43.710Z,4.70
2023-01-17T00:26:17.261Z,5.17
2023-01-17T00:28:45.280Z,5.97
2023-01-17T00:31:15.089Z,4.87
2023-01-17T00:33:42.349Z,4.70
2023-01-17T00:36:10.985Z,5.20
2023-01-17T00:38:39.852Z,5.73
2023-01-17T00:41:14.610Z,5.37
2023-01-17T00:44:00.590Z,5.30
2023-01-17T00:46:46.445Z,5.20
2023-01-17T00:49:32.239Z,5.87
2023-01-17T00:52:18.010Z,5.40
2023-01-17T00:55:03.957Z,4.97
2023-01-17T00:57:49.540Z,6.00
2023-01-17T01:00:38.138Z,5.97
2023-01-17T01:03:30.607Z,5.80
2023-01-17T01:06:16.758Z,6.23
2023-01-17T01:09:02.312Z,6.80
2023-01-17T01:11:48.033Z,6.90
2023-01-17T01:14:34.119Z,7.17
2023-01-17T01:17:19.873Z,6.93
2023-01-17T01:20:05.835Z,8.17
2023-01-17T01:22:51.777Z,8.00
2023-01-17T01:25:37.474Z,8.43
2023-01-17T01:28:30.855Z,8.67
2023-01-17T01:31:22.147Z,8.03
2023-01-17T01:33:51.771Z,8.60
2023-01-17T01:36:19.148Z,8.50
2023-01-17T01:38:46.621Z,9.23
2023-01-17T01:41:13.754Z,9.17
2023-01-17T01:43:55.887Z,8.83
2023-01-17T01:46:36.803Z,9.23
2023-01-17T01:49:18.873Z,8.13
2023-01-17T01:51:52.617Z,8.70
2023-01-17T01:54:52.816Z,8.90
2023-01-17T01:57:26.485Z,9.00
2023-01-17T01:59:59.783Z,9.37
2023-01-17T02:02:30.200Z,8.60
2023-01-17T02:04:59.535Z,8.40
2023-01-17T02:07:33.941Z,8.10
2023-01-17T02:10:02.701Z,8.73
2023-01-17T02:12:30.107Z,8.57
2023-01-17T02:14:57.450Z,8.40
2023-01-17T02:18:20.950Z,8.50
2023-01-17T02:21:14.213Z,8.33
2023-01-17T02:24:14.579Z,8.53
2023-01-17T02:26:59.493Z,9.33
2023-01-17T02:29:56.603Z,8.67
2023-01-17T02:33:29.491Z,8.30
2023-01-17T02:36:17.871Z,8.00
2023-01-17T02:39:00.404Z,8.37
2023-01-17T02:41:38.991Z,7.80
2023-01-17T02:44:10.335Z,7.90
2023-01-17T02:46:55.576Z,8.30
2023-01-17T02:49:28.925Z,8.33
2023-01-17T02:52:36.150Z,7.33
2023-01-17T02:55:30.709Z,8.20
2023-01-17T02:58:38.575Z,8.33
2023-01-17T03:01:51.310Z,8.23
2023-01-17T03:04:24.153Z,9.73
2023-01-17T03:07:02.954Z,8.17
2023-01-17T03:09:32.318Z,8.33
2023-01-17T03:12:00.416Z,8.37
2023-01-17T03:14:31.921Z,8.37
2023-01-17T03:16:59.191Z,9.00
2023-01-17T03:19:26.261Z,8.97
2023-01-17T03:21:53.520Z,8.87
2023-01-17T03:24:20.624Z,8.23
2023-01-17T03:26:47.999Z,9.27
2023-01-17T03:29:16.634Z,8.37
2023-01-17T03:31:43.838Z,7.33
2023-01-17T03:34:11.108Z,8.10
2023-01-17T03:36:38.327Z,8.27
2023-01-17T03:39:05.688Z,9.40
2023-01-17T03:41:32.731Z,8.00
2023-01-17T03:44:00.902Z,8.40
2023-01-17T03:46:31.612Z,7.83
2023-01-17T03:48:58.684Z,8.20
2023-01-17T03:51:25.895Z,8.13
2023-01-17T03:53:52.950Z,8.27
2023-01-17T03:56:20.142Z,8.10
2023-01-17T03:58:47.188Z,7.93
2023-01-17T04:01:14.480Z,8.17
2023-01-17T04:03:41.631Z,8.27
2023-01-17T04:06:08.743Z,8.30
2023-01-17T04:08:35.755Z,8.23
2023-01-17T04:11:02.865Z,7.60
2023-01-17T04:13:31.021Z,8.10
2023-01-17T04:15:58.653Z,7.90
2023-01-17T04:18:26.037Z,7.87
2023-01-17T04:20:53.112Z,8.60
2023-01-17T04:23:20.174Z,7.30
2023-01-17T04:25:47.318Z,8.17
2023-01-17T04:28:14.663Z,8.40
2023-01-17T04:30:41.821Z,7.67
2023-01-17T04:33:08.877Z,7.93
2023-01-17T04:35:36.137Z,7.73
2023-01-17T04:38:03.848Z,7.87
2023-01-17T04:40:31.006Z,7.80
2023-01-17T04:42:58.485Z,8.10
2023-01-17T04:45:26.043Z,7.40
2023-01-17T04:47:53.055Z,7.23
2023-01-17T04:50:20.289Z,7.60
2023-01-17T04:52:47.307Z,7.87
2023-01-17T04:55:14.401Z,8.47
2023-01-17T04:57:41.526Z,8.17
2023-01-17T05:00:10.673Z,8.27
2023-01-17T05:02:37.782Z,7.27
2023-01-17T05:05:05.482Z,8.07
2023-01-17T05:07:33.892Z,8.33
2023-01-17T05:10:03.388Z,8.40
2023-01-17T05:12:30.725Z,7.83
2023-01-17T05:14:57.768Z,7.63
2023-01-17T05:17:25.043Z,7.90
2023-01-17T05:19:52.443Z,7.93
2023-01-17T05:22:19.463Z,7.93
2023-01-17T05:24:48.201Z,7.90
2023-01-17T05:27:16.071Z,8.10
2023-01-17T05:29:43.352Z,8.27
2023-01-17T05:32:10.505Z,7.47
2023-01-17T05:34:37.565Z,8.23
2023-01-17T05:37:04.708Z,7.40
2023-01-17T05:39:31.732Z,8.30
2023-01-17T05:41:59.823Z,8.33
2023-01-17T05:44:27.843Z,8.20
2023-01-17T05:46:56.403Z,8.17
2023-01-17T05:49:23.586Z,7.77
2023-01-17T05:51:51.181Z,8.67
2023-01-17T05:54:18.905Z,7.93
2023-01-17T05:56:46.023Z,8.17
2023-01-17T05:59:14.283Z,9.03
2023-01-17T06:01:41.570Z,7.70
2023-01-17T06:04:08.739Z,7.37
2023-01-17T06:06:35.946Z,8.00
2023-01-17T06:09:03.007Z,7.27
2023-01-17T06:11:30.116Z,7.77
2023-01-17T06:13:57.208Z,8.40
2023-01-17T06:16:24.299Z,8.50
2023-01-17T06:18:52.061Z,7.97
2023-01-17T06:21:19.828Z,7.77
2023-01-17T06:23:47.005Z,8.37
2023-01-17T06:26:14.137Z,9.20
2023-01-17T06:28:41.220Z,7.93
2023-01-17T06:31:09.506Z,8.40
2023-01-17T06:33:36.776Z,9.10
2023-01-17T06:36:04.272Z,8.00
2023-01-17T06:38:31.530Z,7.73
2023-01-17T06:41:03.399Z,7.73
2023-01-17T06:43:33.676Z,7.73
2023-01-17T06:46:01.911Z,8.43
2023-01-17T06:48:29.042Z,8.57
2023-01-17T06:50:58.291Z,8.63
2023-01-17T06:53:25.611Z,8.83
2023-01-17T06:55:56.227Z,8.30
2023-01-17T06:58:23.977Z,8.37
2023-01-17T07:00:51.105Z,7.63
2023-01-17T07:03:24.469Z,7.83
2023-01-17T07:05:53.165Z,7.43
2023-01-17T07:08:20.547Z,7.30
2023-01-17T07:10:48.471Z,7.87
2023-01-17T07:13:15.547Z,7.23
2023-01-17T07:15:42.668Z,8.90
2023-01-17T07:18:09.738Z,8.47
2023-01-17T07:20:38.409Z,7.77
2023-01-17T07:23:06.266Z,8.23
2023-01-17T07:25:33.285Z,7.77
2023-01-17T07:28:00.258Z,7.53
2023-01-17T07:30:27.384Z,8.10
2023-01-17T07:32:55.308Z,7.37
2023-01-17T07:35:23.934Z,7.10
2023-01-17T07:37:51.660Z,7.43
2023-01-17T07:40:20.722Z,6.77
2023-01-17T07:42:48.103Z,7.50
2023-01-17T07:45:16.875Z,7.03
2023-01-17T07:47:45.069Z,6.73
2023-01-17T07:50:13.694Z,7.30
2023-01-17T07:52:40.921Z,7.03
2023-01-17T07:55:09.072Z,6.87
2023-01-17T07:57:36.156Z,7.17
2023-01-17T08:00:04.378Z,6.27
2023-01-17T08:02:31.487Z,6.80
2023-01-17T08:04:58.508Z,6.97
2023-01-17T08:07:25.618Z,6.60
2023-01-17T08:09:54.404Z,6.27
2023-01-17T08:12:21.437Z,6.23
2023-01-17T08:14:48.439Z,6.83
2023-01-17T08:17:17.147Z,6.57
2023-01-17T08:19:44.987Z,6.57
2023-01-17T08:22:12.439Z,6.90
2023-01-17T08:24:39.447Z,6.60
2023-01-17T08:27:06.669Z,7.45
2023-01-17T08:29:33.719Z,7.15
2023-01-17T08:32:00.766Z,6.45
2023-01-17T08:34:27.893Z,6.30
2023-01-17T08:36:55.117Z,6.37
2023-01-17T08:39:22.536Z,7.07
2023-01-17T08:41:49.601Z,6.18
2023-01-17T08:44:16.755Z,6.60
2023-01-17T08:46:44.316Z,7.00
2023-01-17T08:49:12.542Z,6.40
2023-01-17T08:51:40.395Z,6.35
2023-01-17T08:54:09.560Z,6.82
2023-01-17T08:56:36.643Z,6.43
2023-01-17T08:59:03.759Z,6.33
2023-01-17T09:01:30.882Z,5.75
2023-01-17T09:03:58.003Z,5.90
2023-01-17T09:06:25.058Z,6.10
2023-01-17T09:08:54.678Z,6.20
2023-01-17T09:11:21.721Z,6.03
2023-01-17T09:13:48.765Z,5.70
2023-01-17T09:16:15.838Z,6.27
2023-01-17T09:18:42.822Z,6.27
2023-01-17T09:21:16.880Z,5.47
2023-01-17T09:23:44.531Z,5.53
2023-01-17T09:26:25.526Z,6.00
2023-01-17T09:28:53.208Z,6.17
2023-01-17T09:31:22.610Z,6.40
2023-01-17T09:33:51.824Z,6.43
2023-01-17T09:36:19.604Z,6.47
2023-01-17T09:38:47.212Z,6.03
2023-01-17T09:41:30.279Z,6.27
2023-01-17T09:44:21.426Z,5.73
2023-01-17T09:46:52.000Z,6.73
2023-01-17T09:49:38.164Z,6.30
2023-01-17T09:52:08.178Z,6.23
2023-01-17T09:54:40.768Z,6.57
2023-01-17T09:57:34.967Z,5.80
2023-01-17T10:00:14.066Z,6.87
2023-01-17T10:03:30.656Z,6.37
2023-01-17T10:06:21.516Z,6.50
2023-01-17T10:09:38.671Z,5.93
2023-01-17T10:12:27.996Z,5.77
2023-01-17T10:15:28.738Z,6.20
2023-01-17T10:18:29.074Z,6.50
2023-01-17T10:21:19.556Z,6.50
2023-01-17T10:24:40.528Z,7.27
2023-01-17T10:27:25.011Z,6.77
2023-01-17T10:29:52.397Z,7.10
2023-01-17T10:32:26.668Z,5.83
2023-01-17T10:34:54.264Z,5.90
2023-01-17T10:37:44.133Z,6.93
2023-01-17T10:40:35.079Z,6.70
2023-01-17T10:43:10.500Z,7.47
2023-01-17T10:45:48.962Z,6.83
2023-01-17T10:48:42.001Z,5.90
2023-01-17T10:51:32.549Z,6.10
2023-01-17T10:54:36.175Z,7.23
2023-01-17T10:57:03.560Z,7.00
2023-01-17T10:59:33.932Z,6.70
2023-01-17T11:02:07.181Z,6.70
2023-01-17T11:04:41.070Z,6.57
2023-01-17T11:07:19.023Z,7.03
2023-01-17T11:09:53.229Z,6.90
2023-01-17T11:12:24.917Z,6.87
2023-01-17T11:15:17.847Z,6.87
2023-01-17T11:18:06.044Z,7.30
2023-01-17T11:20:41.165Z,6.90
2023-01-17T11:23:25.744Z,7.57
2023-01-17T11:26:03.040Z,6.57
2023-01-17T11:28:36.365Z,7.17
2023-01-17T11:31:08.019Z,7.93
2023-01-17T11:33:53.913Z,7.37
2023-01-17T11:36:30.733Z,6.90
2023-01-17T11:39:17.916Z,7.93
2023-01-17T11:41:47.859Z,7.00
2023-01-17T11:44:28.887Z,7.60
2023-01-17T11:47:19.326Z,7.30
2023-01-17T11:49:50.163Z,7.43
2023-01-17T11:52:22.577Z,7.70
2023-01-17T11:54:51.541Z,7.20
2023-01-17T11:57:32.906Z,7.47
2023-01-17T12:00:26.474Z,8.00
2023-01-17T12:03:37.906Z,7.60
2023-01-17T12:06:26.506Z,7.53
2023-01-17T12:09:14.974Z,7.40
2023-01-17T12:12:39.423Z,7.50
2023-01-17T12:15:45.090Z,7.83
2023-01-17T12:18:27.046Z,7.80
2023-01-17T12:21:16.724Z,7.80
2023-01-17T12:24:03.280Z,7.80
2023-01-17T12:27:02.930Z,7.50
2023-01-17T12:29:50.756Z,7.90
2023-01-17T12:32:39.440Z,8.33
2023-01-17T12:35:43.899Z,8.03
2023-01-17T12:38:31.610Z,8.33
2023-01-17T12:41:27.575Z,8.73
2023-01-17T12:43:59.741Z,7.83
2023-01-17T12:46:43.320Z,8.93
2023-01-17T12:49:39.047Z,8.00
2023-01-17T12:52:29.333Z,9.20
2023-01-17T12:55:05.732Z,8.63
2023-01-17T12:57:47.762Z,7.93
2023-01-17T13:00:23.163Z,10.37
2023-01-17T13:03:03.926Z,9.07
2023-01-17T13:05:42.785Z,9.20
2023-01-17T13:08:49.683Z,9.27
2023-01-17T13:11:30.253Z,9.33
2023-01-17T13:13:58.034Z,9.50
2023-01-17T13:16:41.273Z,9.20
2023-01-17T13:19:30.395Z,9.53
2023-01-17T13:22:00.170Z,8.77
2023-01-17T13:24:48.839Z,10.23
2023-01-17T13:27:44.318Z,8.63
2023-01-17T13:31:14.248Z,9.40
2023-01-17T13:34:37.477Z,9.77
2023-01-17T13:37:40.291Z,9.93
2023-01-17T13:40:52.087Z,10.00
2023-01-17T13:43:25.895Z,8.90
2023-01-17T13:45:59.549Z,9.33
2023-01-17T13:48:38.556Z,9.47
2023-01-17T13:51:10.613Z,9.20
2023-01-17T13:53:40.428Z,9.50
2023-01-17T13:56:19.711Z,9.37
2023-01-17T13:58:50.451Z,9.47
2023-01-17T14:01:23.709Z,9.57
2023-01-17T14:03:51.076Z,9.40
2023-01-17T14:06:36.255Z,9.07
2023-01-17T14:09:18.597Z,10.50
2023-01-17T14:12:05.406Z,9.63
2023-01-17T14:14:41.824Z,10.00
2023-01-17T14:17:47.033Z,8.90
2023-01-17T14:20:16.161Z,9.37
2023-01-17T14:22:53.617Z,10.20
2023-01-17T14:25:38.941Z,9.97
2023-01-17T14:28:31.035Z,9.57
2023-01-17T14:31:01.000Z,9.90
2023-01-17T14:33:39.851Z,9.87
2023-01-17T14:36:27.574Z,10.13
2023-01-17T14:38:55.007Z,9.33
2023-01-17T14:41:31.675Z,10.27
2023-01-17T14:44:01.036Z,9.67
2023-01-17T14:46:32.378Z,10.20
2023-01-17T14:49:02.730Z,9.87
2023-01-17T14:51:35.111Z,9.47
2023-01-17T14:54:06.434Z,10.93
2023-01-17T14:56:34.169Z,9.80
2023-01-17T14:59:17.255Z,9.87
2023-01-17T15:02:07.322Z,10.43
2023-01-17T15:04:39.844Z,11.23
2023-01-17T15:07:12.368Z,10.80
2023-01-17T15:09:43.718Z,10.90
2023-01-17T15:12:14.665Z,11.10
2023-01-17T15:14:46.718Z,11.33
2023-01-17T15:17:26.511Z,11.73
2023-01-17T15:19:59.416Z,11.00
2023-01-17T15:22:29.243Z,10.03
2023-01-17T15:24:57.160Z,11.20
2023-01-17T15:27:25.044Z,10.97
2023-01-17T15:29:54.273Z,10.40
2023-01-17T15:32:31.393Z,11.03
2023-01-17T15:35:01.910Z,10.17
2023-01-17T15:37:40.677Z,9.80
2023-01-17T15:40:28.095Z,11.33
2023-01-17T15:43:01.536Z,10.90
2023-01-17T15:45:36.116Z,11.63
2023-01-17T15:48:41.172Z,12.27
2023-01-17T15:51:11.110Z,11.40
2023-01-17T15:53:43.040Z,11.77
2023-01-17T15:56:33.317Z,11.00
2023-01-17T15:59:30.352Z,11.77
2023-01-17T16:01:58.376Z,12.00
2023-01-17T16:04:43.764Z,11.97
2023-01-17T16:07:27.750Z,11.47
2023-01-17T16:10:14.363Z,11.70
2023-01-17T16:12:42.097Z,11.70
2023-01-17T16:15:13.092Z,12.33
2023-01-17T16:17:48.044Z,11.57
2023-01-17T16:20:22.181Z,12.33
2023-01-17T16:22:50.269Z,12.90
2023-01-17T16:25:21.649Z,12.70
2023-01-17T16:27:49.560Z,13.40
2023-01-17T16:30:21.689Z,13.00
2023-01-17T16:32:50.427Z,12.93
2023-01-17T16:35:35.578Z,13.17
2023-01-17T16:38:11.218Z,13.20
2023-01-17T16:40:44.549Z,12.47
2023-01-17T16:43:13.963Z,13.07
2023-01-17T16:45:54.001Z,13.50
2023-01-17T16:48:22.192Z,12.30
2023-01-17T16:50:53.002Z,12.50
2023-01-17T16:53:27.497Z,12.37
2023-01-17T16:55:59.422Z,11.40
2023-01-17T16:58:26.591Z,12.10
2023-01-17T17:00:55.454Z,11.77
2023-01-17T17:03:23.035Z,11.80
2023-01-17T17:05:59.464Z,12.07
2023-01-17T17:08:28.884Z,12.33
2023-01-17T17:11:15.343Z,12.37
2023-01-17T17:13:48.949Z,12.70
2023-01-17T17:16:35.758Z,13.53
2023-01-17T17:19:06.458Z,13.73
2023-01-17T17:21:35.795Z,13.70
2023-01-17T17:24:03.633Z,13.73
2023-01-17T17:26:35.284Z,15.17
2023-01-17T17:29:04.046Z,14.57
2023-01-17T17:31:31.525Z,14.33
2023-01-17T17:34:07.389Z,14.17
2023-01-17T17:36:35.699Z,14.17
2023-01-17T17:39:06.606Z,14.50
2023-01-17T17:41:36.434Z,14.60
2023-01-17T17:44:04.744Z,14.10
2023-01-17T17:46:33.891Z,14.87
2023-01-17T17:49:01.608Z,15.10
2023-01-17T17:51:30.954Z,14.67
2023-01-17T17:54:06.281Z,15.90
2023-01-17T17:56:34.543Z,15.97
2023-01-17T17:59:03.403Z,17.77
2023-01-17T18:01:30.837Z,16.40
2023-01-17T18:04:02.693Z,17.33
2023-01-17T18:06:30.222Z,16.17
2023-01-17T18:08:57.246Z,16.17
2023-01-17T18:11:26.799Z,16.20
2023-01-17T18:13:56.468Z,15.87
2023-01-17T18:16:36.609Z,15.97
2023-01-17T18:19:05.280Z,15.30
2023-01-17T18:21:38.288Z,17.23
2023-01-17T18:24:13.837Z,16.87
2023-01-17T18:26:51.134Z,17.07
2023-01-17T18:29:20.961Z,16.90
2023-01-17T18:31:52.381Z,15.90
2023-01-17T18:34:24.199Z,15.73
2023-01-17T18:36:52.089Z,16.20
2023-01-17T18:39:22.514Z,16.87
2023-01-17T18:41:49.614Z,16.47
2023-01-17T18:44:17.100Z,16.53
2023-01-17T18:46:44.261Z,15.63
2023-01-17T18:49:12.671Z,18.07
2023-01-17T18:51:39.843Z,16.40
2023-01-17T18:54:08.963Z,15.13
2023-01-17T18:56:36.472Z,17.10
2023-01-17T18:59:05.961Z,16.43
2023-01-17T19:01:35.871Z,17.50
2023-01-17T19:04:05.778Z,18.10
2023-01-17T19:06:37.014Z,16.30
2023-01-17T19:09:06.462Z,16.27
2023-01-17T19:11:34.968Z,17.53
2023-01-17T19:14:02.844Z,17.90
2023-01-17T19:16:33.090Z,16.60
2023-01-17T19:19:07.647Z,16.77
2023-01-17T19:21:34.947Z,15.37
2023-01-17T19:24:02.197Z,15.90
2023-01-17T19:26:30.128Z,16.70
2023-01-17T19:29:03.857Z,15.93
2023-01-17T19:31:36.005Z,17.20
2023-01-17T19:34:03.625Z,15.67
2023-01-17T19:36:37.518Z,16.67
2023-01-17T19:39:09.703Z,16.03
2023-01-17T19:41:42.797Z,15.63
2023-01-17T19:44:13.530Z,15.43
2023-01-17T19:46:41.160Z,16.03
2023-01-17T19:49:09.477Z,16.23
2023-01-17T19:51:37.273Z,16.30
2023-01-17T19:54:06.560Z,16.53
2023-01-17T19:56:35.208Z,17.30
2023-01-17T19:59:02.520Z,17.27
2023-01-17T20:01:32.997Z,17.53
2023-01-17T20:04:02.524Z,17.50
2023-01-17T20:06:34.178Z,18.80
2023-01-17T20:09:01.479Z,17.57
2023-01-17T20:11:29.189Z,19.17
2023-01-17T20:13:58.774Z,19.83
2023-01-17T20:16:29.503Z,19.53
2023-01-17T20:18:59.304Z,20.30
2023-01-17T20:21:29.150Z,19.30
2023-01-17T20:23:59.069Z,21.07
2023-01-17T20:26:34.799Z,20.80
2023-01-17T20:29:10.453Z,20.67
2023-01-17T20:31:39.689Z,21.80
2023-01-17T20:34:10.734Z,21.00
2023-01-17T20:36:39.229Z,21.57
2023-01-17T20:39:08.455Z,21.37
2023-01-17T20:41:39.372Z,21.97
2023-01-17T20:44:11.465Z,21.43
2023-01-17T20:46:41.364Z,21.67
2023-01-17T20:49:20.032Z,21.67
2023-01-17T20:51:48.103Z,22.10
2023-01-17T20:54:20.125Z,22.17
2023-01-17T20:56:48.183Z,21.63
2023-01-17T20:59:18.772Z,23.63
2023-01-17T21:01:46.416Z,22.33
2023-01-17T21:04:14.862Z,22.23
2023-01-17T21:06:43.614Z,23.37
2023-01-17T21:09:14.880Z,23.80
2023-01-17T21:11:42.193Z,24.80
2023-01-17T21:14:09.467Z,24.80
2023-01-17T21:16:36.793Z,24.73
2023-01-17T21:19:05.291Z,24.93
2023-01-17T21:21:32.606Z,24.17
2023-01-17T21:23:59.876Z,24.47
2023-01-17T21:26:28.880Z,24.77
2023-01-17T21:28:58.248Z,25.13
2023-01-17T21:31:29.505Z,25.30
2023-01-17T21:34:03.383Z,25.87
2023-01-17T21:36:34.063Z,25.27
2023-01-17T21:39:06.094Z,25.10
2023-01-17T21:41:40.394Z,24.97
2023-01-17T21:44:12.998Z,25.00
2023-01-17T21:46:41.257Z,25.27
2023-01-17T21:49:13.491Z,24.60
2023-01-17T21:51:54.726Z,25.27
2023-01-17T21:54:45.741Z,25.43
2023-01-17T21:57:37.909Z,25.73
2023-01-17T22:00:08.884Z,25.10
2023-01-17T22:02:35.979Z,24.63
2023-01-17T22:05:03.023Z,25.73
2023-01-17T22:07:30.113Z,25.13
2023-01-17T22:09:57.110Z,24.80
2023-01-17T22:12:24.187Z,24.97
2023-01-17T22:14:51.294Z,23.33
2023-01-17T22:17:18.444Z,25.27
2023-01-17T22:19:46.078Z,24.43
2023-01-17T22:22:13.687Z,25.00
2023-01-17T22:24:40.921Z,24.40
2023-01-17T22:27:09.992Z,25.53
2023-01-17T22:29:38.070Z,26.47
2023-01-17T22:32:05.569Z,24.00
2023-01-17T22:34:32.787Z,26.73
2023-01-17T22:37:00.575Z,25.33
2023-01-17T22:39:27.702Z,25.33
2023-01-17T22:41:54.770Z,25.20
2023-01-17T22:44:21.941Z,24.90
2023-01-17T22:46:49.353Z,25.20
2023-01-17T22:49:16.960Z,24.77
2023-01-17T22:51:45.073Z,25.60
2023-01-17T22:54:12.267Z,25.83
2023-01-17T22:56:39.524Z,24.97
2023-01-17T22:59:11.823Z,23.57
2023-01-17T23:01:42.847Z,25.13
2023-01-17T23:04:14.603Z,24.03
2023-01-17T23:06:42.410Z,24.47
2023-01-17T23:09:15.463Z,25.00
2023-01-17T23:11:50.895Z,24.30
2023-01-17T23:14:58.147Z,24.17
2023-01-17T23:17:44.146Z,24.50
2023-01-17T23:20:12.073Z,25.80
2023-01-17T23:22:39.394Z,27.83
2023-01-17T23:25:12.318Z,25.60
2023-01-17T23:28:05.250Z,25.27
2023-01-17T23:30:39.441Z,25.43
2023-01-17T23:33:16.214Z,28.33
2023-01-17T23:35:46.187Z,29.97
2023-01-17T23:38:31.104Z,27.17
2023-01-17T23:41:26.387Z,27.40
2023-01-17T23:43:56.135Z,28.13
2023-01-17T23:46:25.523Z,30.70
2023-01-17T23:48:52.966Z,29.20
2023-01-17T23:51:20.060Z,28.73
2023-01-17T23:53:47.620Z,30.00
2023-01-17T23:56:21.983Z,30.57
2023-01-17T23:58:49.158Z,29.80
